createdAt,value
2022-09-15T00:00:27.286Z,19.64
2022-09-15T00:02:54.053Z,19.60
2022-09-15T00:05:20.926Z,19.62
2022-09-15T00:07:47.670Z,19.61
2022-09-15T00:10:14.278Z,19.63
2022-09-15T00:12:40.868Z,19.61
2022-09-15T00:15:07.870Z,19.63
2022-09-15T00:17:34.607Z,19.64
2022-09-15T00:20:01.349Z,19.64
2022-09-15T00:22:28.163Z,19.65
2022-09-15T00:24:54.824Z,19.68
2022-09-15T00:27:21.446Z,19.67
2022-09-15T00:29:48.100Z,19.62
2022-09-15T00:32:14.937Z,19.65
2022-09-15T00:34:41.651Z,19.66
2022-09-15T00:37:08.417Z,19.66
2022-09-15T00:39:36.094Z,19.66
2022-09-15T00:42:03.851Z,19.65
2022-09-15T00:44:36.494Z,19.62
2022-09-15T00:47:18.669Z,19.67
2022-09-15T00:49:46.063Z,19.39
2022-09-15T00:52:17.718Z,19.63
2022-09-15T00:54:57.971Z,19.60
2022-09-15T00:57:28.719Z,19.69
2022-09-15T00:59:56.772Z,19.73
2022-09-15T01:02:32.883Z,19.74
2022-09-15T01:05:02.288Z,19.79
2022-09-15T01:07:33.666Z,19.79
2022-09-15T01:10:07.189Z,19.80
2022-09-15T01:12:34.064Z,19.80
2022-09-15T01:15:01.789Z,19.85
2022-09-15T01:17:55.578Z,19.71
2022-09-15T01:20:53.171Z,19.82
2022-09-15T01:23:58.593Z,19.70
2022-09-15T01:26:46.958Z,19.80
2022-09-15T01:29:47.213Z,19.70
2022-09-15T01:33:04.189Z,19.66
2022-09-15T01:35:42.521Z,19.77
2022-09-15T01:38:36.858Z,19.73
2022-09-15T01:41:18.756Z,19.74
2022-09-15T01:43:53.911Z,19.79
2022-09-15T01:46:23.007Z,19.80
2022-09-15T01:48:50.618Z,19.81
2022-09-15T01:51:17.862Z,19.81
2022-09-15T01:53:45.866Z,19.81
2022-09-15T01:56:12.932Z,19.83
2022-09-15T01:58:40.766Z,19.81
2022-09-15T02:01:17.290Z,19.69
2022-09-15T02:03:51.573Z,19.71
2022-09-15T02:06:37.642Z,19.67
2022-09-15T02:09:13.428Z,19.68
2022-09-15T02:12:10.730Z,19.62
2022-09-15T02:14:52.363Z,19.65
2022-09-15T02:17:21.128Z,19.75
2022-09-15T02:19:54.301Z,19.69
2022-09-15T02:22:27.725Z,19.68
2022-09-15T02:25:08.883Z,19.68
2022-09-15T02:27:38.829Z,19.68
2022-09-15T02:30:08.913Z,19.69
2022-09-15T02:32:37.184Z,19.67
2022-09-15T02:35:07.553Z,19.63
2022-09-15T02:37:35.523Z,19.67
2022-09-15T02:40:02.705Z,19.67
2022-09-15T02:42:31.626Z,19.67
2022-09-15T02:44:59.399Z,19.68
2022-09-15T02:47:28.116Z,19.70
2022-09-15T02:49:55.509Z,19.70
2022-09-15T02:52:22.141Z,19.69
2022-09-15T02:54:49.155Z,19.71
2022-09-15T02:57:16.413Z,19.67
2022-09-15T03:00:01.978Z,19.69
2022-09-15T03:02:28.841Z,19.68
2022-09-15T03:04:55.513Z,19.66
2022-09-15T03:07:22.164Z,19.71
2022-09-15T03:09:48.879Z,19.68
2022-09-15T03:12:15.943Z,19.68
2022-09-15T03:14:42.819Z,19.67
2022-09-15T03:17:11.513Z,19.68
2022-09-15T03:19:39.526Z,19.67
2022-09-15T03:22:06.834Z,19.69
2022-09-15T03:24:33.622Z,19.71
2022-09-15T03:27:00.356Z,19.68
2022-09-15T03:29:39.418Z,19.60
2022-09-15T03:32:06.876Z,19.67
2022-09-15T03:34:33.558Z,19.67
2022-09-15T03:37:00.146Z,19.69
2022-09-15T03:39:28.831Z,19.69
2022-09-15T03:41:57.616Z,19.66
2022-09-15T03:44:24.549Z,19.68
2022-09-15T03:46:51.373Z,19.67
2022-09-15T03:49:18.014Z,19.68
2022-09-15T03:51:44.844Z,19.68
2022-09-15T03:54:11.746Z,19.68
2022-09-15T03:56:38.464Z,19.66
2022-09-15T03:59:09.469Z,19.65
2022-09-15T04:01:36.148Z,19.66
2022-09-15T04:04:02.932Z,19.66
2022-09-15T04:06:29.568Z,19.64
2022-09-15T04:09:00.016Z,19.62
2022-09-15T04:11:26.777Z,19.62
2022-09-15T04:13:53.874Z,19.63
2022-09-15T04:16:24.547Z,19.60
2022-09-15T04:18:55.100Z,19.62
2022-09-15T04:21:24.260Z,19.63
2022-09-15T04:23:53.178Z,19.62
2022-09-15T04:26:32.934Z,19.53
2022-09-15T04:29:04.458Z,19.60
2022-09-15T04:31:35.784Z,19.58
2022-09-15T04:34:02.475Z,19.61
2022-09-15T04:36:31.265Z,19.61
2022-09-15T04:38:58.125Z,19.62
2022-09-15T04:41:26.316Z,19.63
2022-09-15T04:43:53.204Z,19.63
2022-09-15T04:46:20.138Z,19.63
2022-09-15T04:48:48.563Z,19.65
2022-09-15T04:51:18.537Z,19.63
2022-09-15T04:53:45.882Z,19.62
2022-09-15T04:56:15.071Z,19.63
2022-09-15T04:58:43.793Z,19.61
2022-09-15T05:01:15.695Z,19.64
2022-09-15T05:03:42.414Z,19.60
2022-09-15T05:06:11.486Z,19.63
2022-09-15T05:08:38.486Z,19.63
2022-09-15T05:11:07.098Z,19.62
2022-09-15T05:13:34.774Z,19.61
2022-09-15T05:16:06.144Z,19.58
2022-09-15T05:18:35.128Z,19.62
2022-09-15T05:21:02.720Z,19.62
2022-09-15T05:23:29.497Z,19.61
2022-09-15T05:26:03.281Z,19.58
2022-09-15T05:28:32.466Z,19.61
2022-09-15T05:30:59.117Z,19.60
2022-09-15T05:33:25.797Z,19.60
2022-09-15T05:35:57.419Z,19.59
2022-09-15T05:38:25.321Z,19.61
2022-09-15T05:40:52.246Z,19.59
2022-09-15T05:43:18.905Z,19.61
2022-09-15T05:45:53.990Z,19.53
2022-09-15T05:48:20.665Z,19.62
2022-09-15T05:50:49.938Z,19.55
2022-09-15T05:53:16.654Z,19.54
2022-09-15T05:55:43.322Z,19.53
2022-09-15T05:58:10.086Z,19.51
2022-09-15T06:00:36.900Z,19.55
2022-09-15T06:03:03.835Z,19.51
2022-09-15T06:05:30.618Z,19.52
2022-09-15T06:07:57.219Z,19.47
2022-09-15T06:10:24.943Z,19.49
2022-09-15T06:12:55.090Z,19.46
2022-09-15T06:15:22.723Z,19.48
2022-09-15T06:17:49.777Z,19.50
2022-09-15T06:20:16.615Z,19.51
2022-09-15T06:22:43.241Z,19.52
2022-09-15T06:25:10.483Z,19.50
2022-09-15T06:27:42.099Z,19.45
2022-09-15T06:34:52.182Z,19.44
2022-09-15T06:37:19.031Z,19.46
2022-09-15T06:39:45.666Z,19.42
2022-09-15T06:42:14.037Z,19.48
2022-09-15T06:44:41.540Z,19.47
2022-09-15T06:47:08.129Z,19.46
2022-09-15T06:49:34.747Z,19.48
2022-09-15T06:52:02.440Z,19.45
2022-09-15T06:54:29.044Z,19.48
2022-09-15T06:56:55.693Z,19.40
2022-09-15T06:59:24.469Z,19.35
2022-09-15T07:01:54.761Z,19.12
2022-09-15T07:04:22.010Z,19.15
2022-09-15T07:15:59.889Z,18.86
2022-09-15T07:24:29.838Z,18.68
2022-09-15T07:26:56.486Z,18.83
2022-09-15T07:29:23.112Z,18.83
2022-09-15T07:31:50.612Z,18.90
2022-09-15T07:34:17.330Z,18.77
2022-09-15T07:41:17.472Z,18.77
2022-09-15T07:43:48.682Z,18.68
2022-09-15T07:46:16.277Z,18.72
2022-09-15T07:48:51.323Z,18.55
2022-09-15T07:51:18.464Z,18.39
2022-09-15T07:53:46.788Z,18.42
2022-09-15T07:56:13.513Z,18.46
2022-09-15T07:58:40.094Z,18.30
2022-09-15T08:01:09.107Z,18.10
2022-09-15T08:03:35.810Z,18.22
2022-09-15T08:06:03.214Z,18.13
2022-09-15T08:08:30.371Z,17.85
2022-09-15T08:10:58.015Z,17.92
2022-09-15T08:13:24.926Z,17.67
2022-09-15T08:20:21.405Z,17.86
2022-09-15T08:22:48.859Z,17.84
2022-09-15T08:25:15.559Z,17.90
2022-09-15T08:27:42.201Z,17.80
2022-09-15T08:30:09.145Z,17.88
2022-09-15T08:32:35.802Z,17.79
2022-09-15T08:35:02.461Z,17.78
2022-09-15T08:37:29.058Z,17.86
2022-09-15T08:39:55.781Z,17.87
2022-09-15T08:42:24.070Z,17.89
2022-09-15T08:45:04.118Z,17.76
2022-09-15T08:47:41.190Z,17.74
2022-09-15T08:50:20.959Z,17.75
2022-09-15T08:57:20.030Z,17.94
2022-09-15T08:59:46.694Z,18.02
2022-09-15T09:02:13.191Z,18.02
2022-09-15T09:04:49.690Z,17.98
2022-09-15T09:11:59.380Z,18.02
2022-09-15T09:14:47.486Z,18.13
2022-09-15T09:17:39.194Z,18.06
2022-09-15T09:20:32.170Z,17.97
2022-09-15T09:23:01.582Z,18.13
2022-09-15T09:25:28.606Z,18.17
2022-09-15T09:27:58.079Z,18.14
2022-09-15T09:30:25.999Z,18.20
2022-09-15T09:33:18.288Z,18.06
2022-09-15T09:40:14.425Z,18.21
2022-09-15T09:42:41.830Z,18.32
2022-09-15T09:45:12.221Z,18.32
2022-09-15T09:47:39.303Z,18.37
2022-09-15T09:50:39.483Z,18.29
2022-09-15T09:53:20.315Z,18.28
2022-09-15T09:55:47.019Z,18.35
2022-09-15T09:58:18.653Z,18.30
2022-09-15T10:00:45.635Z,18.36
2022-09-15T10:03:22.115Z,18.31
2022-09-15T10:06:06.631Z,18.16
2022-09-15T10:08:33.689Z,18.31
2022-09-15T10:11:06.538Z,18.32
2022-09-15T10:13:36.279Z,18.05
2022-09-15T10:16:05.858Z,18.33
2022-09-15T10:18:38.050Z,18.39
2022-09-15T10:21:05.978Z,18.43
2022-09-15T10:23:34.132Z,18.47
2022-09-15T10:26:22.031Z,18.34
2022-09-15T10:29:23.192Z,18.32
2022-09-15T10:31:50.168Z,18.50
2022-09-15T10:34:36.273Z,18.34
2022-09-15T10:41:39.277Z,18.43
2022-09-15T10:44:37.561Z,18.37
2022-09-15T11:09:29.513Z,18.59
2022-09-15T11:12:04.486Z,18.54
2022-09-15T11:14:42.491Z,18.47
2022-09-15T11:17:16.481Z,18.50
2022-09-15T11:19:52.039Z,18.59
2022-09-15T11:22:42.122Z,18.57
2022-09-15T11:25:16.914Z,18.67
2022-09-15T11:27:49.359Z,18.58
2022-09-15T11:30:18.875Z,18.58
2022-09-15T11:32:52.961Z,18.59
2022-09-15T11:35:34.838Z,18.58
2022-09-15T11:38:52.848Z,18.56
2022-09-15T11:41:19.444Z,18.65
2022-09-15T11:43:55.467Z,18.70
2022-09-15T11:47:09.794Z,18.55
2022-09-15T11:49:50.442Z,18.60
2022-09-15T11:52:45.043Z,18.64
2022-09-15T11:55:35.943Z,18.76
2022-09-15T11:58:22.013Z,18.76
2022-09-15T12:00:58.921Z,18.85
2022-09-15T12:03:40.187Z,18.82
2022-09-15T12:06:11.522Z,18.82
2022-09-15T12:08:46.942Z,18.74
2022-09-15T12:11:19.042Z,18.82
2022-09-15T12:13:45.741Z,18.90
2022-09-15T12:16:12.627Z,18.97
2022-09-15T12:19:08.665Z,18.91
2022-09-15T12:21:46.117Z,18.94
2022-09-15T12:24:17.503Z,19.02
2022-09-15T12:26:46.565Z,19.02
2022-09-15T12:29:22.203Z,18.95
2022-09-15T12:31:48.811Z,18.95
2022-09-15T12:34:25.613Z,18.90
2022-09-15T12:37:06.663Z,18.94
2022-09-15T12:39:39.832Z,18.94
2022-09-15T12:42:14.080Z,19.05
2022-09-15T12:44:44.616Z,19.07
2022-09-15T12:47:31.702Z,19.02
2022-09-15T12:50:07.765Z,19.20
2022-09-15T12:52:55.709Z,19.15
2022-09-15T12:55:24.998Z,19.33
2022-09-15T12:57:54.145Z,19.39
2022-09-15T13:00:20.669Z,19.46
2022-09-15T13:02:48.946Z,19.55
2022-09-15T13:05:41.631Z,19.43
2022-09-15T13:08:24.445Z,19.45
2022-09-15T13:11:09.823Z,19.36
2022-09-15T13:13:47.458Z,19.48
2022-09-15T13:16:19.376Z,19.45
2022-09-15T13:18:47.210Z,19.46
2022-09-15T13:21:16.900Z,19.56
2022-09-15T13:23:47.975Z,19.56
2022-09-15T13:26:18.311Z,19.52
2022-09-15T13:28:47.749Z,19.48
2022-09-15T13:31:37.693Z,19.42
2022-09-15T13:38:06.822Z,19.42
2022-09-15T13:41:05.245Z,19.27
2022-09-15T13:44:11.122Z,19.30
2022-09-15T13:46:59.212Z,19.42
2022-09-15T13:49:44.893Z,19.44
2022-09-15T13:52:19.047Z,19.34
2022-09-15T13:55:26.253Z,19.27
2022-09-15T14:00:55.661Z,19.27
2022-09-15T14:03:47.505Z,19.27
2022-09-15T14:06:20.307Z,19.33
2022-09-15T14:08:47.942Z,19.06
2022-09-15T14:11:15.958Z,19.28
2022-09-15T14:13:46.737Z,19.21
2022-09-15T14:16:29.206Z,19.06
2022-09-15T14:18:58.292Z,19.14
2022-09-15T14:21:27.238Z,19.14
2022-09-15T14:23:56.116Z,19.22
2022-09-15T14:26:26.381Z,19.24
2022-09-15T14:28:56.534Z,19.27
2022-09-15T14:31:32.023Z,19.21
2022-09-15T14:33:59.097Z,19.23
2022-09-15T14:36:29.169Z,19.30
2022-09-15T14:39:08.772Z,19.20
2022-09-15T14:41:36.567Z,19.36
2022-09-15T14:47:20.714Z,19.37
2022-09-15T14:49:47.873Z,19.39
2022-09-15T14:52:27.147Z,19.28
2022-09-15T14:54:59.674Z,19.26
2022-09-15T14:57:30.862Z,19.32
2022-09-15T15:00:02.536Z,19.27
2022-09-15T15:02:48.573Z,19.25
2022-09-15T15:05:19.752Z,19.38
2022-09-15T15:07:46.406Z,19.43
2022-09-15T15:10:24.303Z,19.51
2022-09-15T15:12:59.139Z,19.47
2022-09-15T15:15:27.141Z,19.51
2022-09-15T15:17:54.598Z,19.55
2022-09-15T15:20:30.443Z,19.48
2022-09-15T15:23:20.550Z,19.45
2022-09-15T15:25:47.177Z,19.58
2022-09-15T15:28:36.951Z,19.49
2022-09-15T15:31:06.370Z,19.59
2022-09-15T15:33:33.459Z,19.61
2022-09-15T15:36:07.229Z,19.59
2022-09-15T15:38:47.510Z,19.58
2022-09-15T15:41:20.186Z,19.43
2022-09-15T15:44:03.413Z,19.35
2022-09-15T15:46:49.016Z,19.28
2022-09-15T15:49:16.152Z,19.37
2022-09-15T15:51:42.966Z,19.30
2022-09-15T15:54:09.744Z,19.25
2022-09-15T15:56:37.993Z,19.23
2022-09-15T15:59:05.806Z,19.19
2022-09-15T16:01:33.166Z,19.19
2022-09-15T16:03:59.894Z,19.15
2022-09-15T16:06:26.566Z,19.16
2022-09-15T16:08:53.595Z,19.15
2022-09-15T16:11:21.264Z,19.19
2022-09-15T16:13:48.269Z,19.16
2022-09-15T16:16:23.731Z,19.07
2022-09-15T16:18:50.747Z,19.16
2022-09-15T16:21:21.326Z,19.14
2022-09-15T16:23:49.009Z,19.16
2022-09-15T16:26:18.641Z,19.14
2022-09-15T16:28:45.503Z,19.11
2022-09-15T16:31:13.726Z,19.11
2022-09-15T16:33:42.092Z,19.10
2022-09-15T16:36:12.313Z,19.08
2022-09-15T16:38:44.197Z,19.06
2022-09-15T16:41:25.681Z,18.95
2022-09-15T16:43:58.330Z,19.07
2022-09-15T16:46:28.838Z,19.00
2022-09-15T16:48:55.693Z,19.01
2022-09-15T16:51:28.789Z,18.99
2022-09-15T16:53:57.885Z,18.98
2022-09-15T16:56:24.673Z,18.98
2022-09-15T16:58:58.759Z,18.95
2022-09-15T17:01:26.703Z,18.94
2022-09-15T17:03:53.471Z,18.91
2022-09-15T17:06:21.876Z,18.89
2022-09-15T17:08:48.596Z,18.89
2022-09-15T17:11:19.409Z,18.79
2022-09-15T17:13:46.674Z,18.82
2022-09-15T17:16:14.840Z,18.80
2022-09-15T17:18:41.585Z,18.77
2022-09-15T17:21:12.494Z,18.69
2022-09-15T17:23:40.939Z,18.73
2022-09-15T17:26:15.970Z,18.63
2022-09-15T17:33:33.413Z,18.36
2022-09-15T17:36:01.234Z,18.56
2022-09-15T17:38:28.861Z,18.58
2022-09-15T17:40:57.453Z,18.54
2022-09-15T17:43:28.847Z,18.50
2022-09-15T17:45:55.818Z,18.53
2022-09-15T17:48:22.690Z,18.47
2022-09-15T17:50:49.575Z,18.45
2022-09-15T17:53:22.684Z,18.41
2022-09-15T17:55:50.732Z,18.44
2022-09-15T17:58:18.226Z,18.41
2022-09-15T18:00:45.817Z,18.41
2022-09-15T18:03:18.983Z,18.30
2022-09-15T18:05:45.819Z,18.34
2022-09-15T18:08:12.850Z,18.33
2022-09-15T18:10:39.757Z,18.31
2022-09-15T18:13:06.986Z,18.29
2022-09-15T18:15:34.934Z,18.28
2022-09-15T18:18:04.181Z,18.26
2022-09-15T18:20:32.710Z,18.24
2022-09-15T18:27:32.481Z,18.16
2022-09-15T18:29:59.217Z,18.14
2022-09-15T18:32:26.237Z,18.12
2022-09-15T18:34:53.857Z,18.11
2022-09-15T18:37:20.725Z,18.10
2022-09-15T18:39:47.448Z,18.04
2022-09-15T18:42:14.147Z,18.00
2022-09-15T18:44:40.760Z,17.96
2022-09-15T18:47:07.382Z,17.94
2022-09-15T18:49:34.953Z,17.92
2022-09-15T18:52:02.913Z,17.90
2022-09-15T18:54:29.681Z,17.87
2022-09-15T18:56:56.493Z,17.78
2022-09-15T19:03:29.700Z,17.66
2022-09-15T19:05:56.559Z,17.70
2022-09-15T19:08:23.280Z,17.69
2022-09-15T19:11:45.403Z,17.41
2022-09-15T19:14:11.994Z,17.57
2022-09-15T19:16:56.351Z,17.55
2022-09-15T19:19:24.098Z,17.53
2022-09-15T19:21:50.792Z,17.53
2022-09-15T19:24:17.409Z,17.52
2022-09-15T19:26:46.628Z,17.49
2022-09-15T19:29:13.944Z,17.49
2022-09-15T19:31:42.170Z,17.49
2022-09-15T19:34:37.063Z,17.22
2022-09-15T19:37:08.039Z,17.43
2022-09-15T19:39:38.609Z,17.44
2022-09-15T19:42:06.597Z,17.45
2022-09-15T19:44:33.646Z,17.50
2022-09-15T19:47:00.513Z,17.44
2022-09-15T19:49:27.326Z,17.42
2022-09-15T19:51:57.015Z,17.44
2022-09-15T19:54:26.300Z,17.40
2022-09-15T19:56:53.374Z,17.43
2022-09-15T19:59:20.524Z,17.43
2022-09-15T20:01:47.481Z,17.43
2022-09-15T20:04:14.791Z,17.49
2022-09-15T20:06:41.815Z,17.52
2022-09-15T20:09:09.375Z,17.51
2022-09-15T20:11:36.501Z,17.50
2022-09-15T20:14:03.470Z,17.43
2022-09-15T20:17:49.305Z,17.21
2022-09-15T20:20:16.212Z,17.44
2022-09-15T20:22:42.876Z,17.44
2022-09-15T20:25:09.487Z,17.44
2022-09-15T20:28:26.289Z,17.26
2022-09-15T20:31:03.874Z,17.31
2022-09-15T20:33:31.605Z,17.46
2022-09-15T20:36:06.593Z,17.35
2022-09-15T20:38:34.286Z,17.41
2022-09-15T20:41:01.422Z,17.40
2022-09-15T20:43:28.565Z,17.39
2022-09-15T20:46:00.208Z,17.27
2022-09-15T20:48:32.306Z,17.31
2022-09-15T20:51:06.422Z,17.14
2022-09-15T20:53:35.717Z,17.26
2022-09-15T20:56:02.955Z,17.28
2022-09-15T20:58:29.806Z,17.29
2022-09-15T21:01:06.511Z,17.11
2022-09-15T21:03:34.312Z,17.26
2022-09-15T21:06:06.717Z,17.22
2022-09-15T21:08:34.352Z,17.22
2022-09-15T21:11:01.812Z,17.23
2022-09-15T21:13:33.598Z,17.16
2022-09-15T21:16:02.104Z,17.19
2022-09-15T21:18:34.003Z,17.05
2022-09-15T21:21:09.472Z,17.04
2022-09-15T21:23:44.285Z,16.92
2022-09-15T21:26:15.840Z,16.99
2022-09-15T21:28:43.552Z,17.04
2022-09-15T21:31:15.284Z,17.01
2022-09-15T21:33:42.503Z,17.06
2022-09-15T21:36:11.700Z,17.00
2022-09-15T21:38:40.373Z,17.04
2022-09-15T21:41:09.302Z,16.98
2022-09-15T21:43:39.184Z,16.96
2022-09-15T21:46:08.409Z,16.92
2022-09-15T21:48:35.797Z,16.94
2022-09-15T21:51:04.063Z,16.95
2022-09-15T21:53:30.767Z,16.93
2022-09-15T21:56:00.849Z,16.87
2022-09-15T21:58:31.878Z,16.91
2022-09-15T22:00:58.674Z,16.84
2022-09-15T22:03:25.470Z,16.88
2022-09-15T22:05:52.170Z,16.88
2022-09-15T22:08:19.304Z,16.85
2022-09-15T22:10:46.118Z,16.83
2022-09-15T22:13:12.799Z,16.82
2022-09-15T22:15:39.456Z,16.79
2022-09-15T22:18:07.270Z,16.81
2022-09-15T22:20:33.961Z,16.79
2022-09-15T22:23:01.323Z,16.79
2022-09-15T22:25:28.922Z,16.79
2022-09-15T22:27:55.573Z,16.82
2022-09-15T22:30:22.260Z,16.77
2022-09-15T22:32:49.046Z,16.76
2022-09-15T22:35:17.438Z,16.77
2022-09-15T22:37:44.055Z,16.76
2022-09-15T22:40:11.052Z,16.75
2022-09-15T22:42:37.909Z,16.68
2022-09-15T22:45:05.107Z,16.66
2022-09-15T22:47:33.148Z,16.67
2022-09-15T22:49:59.768Z,16.73
2022-09-15T22:52:26.397Z,16.69
2022-09-15T22:54:53.058Z,16.70
2022-09-15T22:57:19.708Z,16.67
2022-09-15T22:59:46.595Z,16.68
2022-09-15T23:02:13.544Z,16.71
2022-09-15T23:04:40.316Z,16.65
2022-09-15T23:07:07.073Z,16.65
2022-09-15T23:09:34.188Z,16.63
2022-09-15T23:12:00.948Z,16.64
2022-09-15T23:14:27.645Z,16.65
2022-09-15T23:16:54.433Z,16.63
2022-09-15T23:19:21.295Z,16.64
2022-09-15T23:21:47.964Z,16.69
2022-09-15T23:24:14.954Z,16.64
2022-09-15T23:26:41.598Z,16.72
2022-09-15T23:29:08.209Z,16.70
2022-09-15T23:31:35.108Z,16.72
2022-09-15T23:34:02.099Z,16.73
2022-09-15T23:36:30.025Z,16.70
2022-09-15T23:38:56.762Z,16.69
2022-09-15T23:41:24.603Z,16.70
2022-09-15T23:43:51.245Z,16.71
2022-09-15T23:46:17.980Z,16.69
2022-09-15T23:48:44.755Z,16.73
2022-09-15T23:51:11.544Z,16.73
2022-09-15T23:53:38.384Z,16.74
2022-09-15T23:56:05.173Z,16.74
2022-09-15T23:58:31.828Z,16.73
